CheckWX is a tool to help pilots better visualize weather data.  It is not intended as a substitute for an official pre-flight weather briefing.

03:23:12 UTC

KRBG METAR
Roseburg Regional Airport
Roseburg, Oregon, USA
Current

30 mins ago

KRBG 260253Z AUTO 00000KT 6SM -RA FEW035 SCT043 OVC049 11/08 A2986 RMK AO2 SLP113 P0005 60024 T01060078 56010
Observed
May-26 @ 02:53 UTC
Visibility
6 SM
Flight Rules
VFR
Conditions
Light Rain
Cloud Levels
  • Few at 3,500' AGL
  • Scattered at 4,300' AGL
  • Overcast at 4,900' AGL
Temperature
11°C / 52°F
Dewpoint
C / 46°F
Humidity
82%
Altimeter
29.86" Hg
Pressure
1011.22 hPa
Current Rain
0.05"
Previous

2 hours ago

KRBG 260153Z AUTO 33005KT 4SM -RA BKN049 OVC055 11/08 A2987 RMK AO2 SLP117 P0007 T01060078
Observed
May-26 @ 01:53 UTC
Wind
  • 330° at 5 KTS
Visibility
4 SM
Flight Rules
MVFR
Conditions
Light Rain
Cloud Levels
  • Broken at 4,900' AGL
  • Overcast at 5,500' AGL
Temperature
11°C / 52°F
Dewpoint
C / 46°F
Humidity
82%
Altimeter
29.87" Hg
Pressure
1011.52 hPa
Current Rain
0.07"
Previous

2 hours ago

KRBG 260121Z AUTO 30005KT 5SM -RA FEW010 SCT030 OVC048 11/08 A2988 RMK AO2 P0002 T01060078
Observed
May-26 @ 01:21 UTC
Wind
  • 300° at 5 KTS
Visibility
5 SM
Flight Rules
MVFR
Conditions
Light Rain
Cloud Levels
  • Few at 1,000' AGL
  • Scattered at 3,000' AGL
  • Overcast at 4,800' AGL
Temperature
11°C / 52°F
Dewpoint
C / 46°F
Humidity
82%
Altimeter
29.88" Hg
Pressure
1011.82 hPa
Current Rain
0.02"